sensor_id;sensor_type;location;lat;lon;timestamp;temperature;humidity
20422;DHT22;10370;53.102;18.034;2023-11-22T00:00:58;-2.50;99.90
20422;DHT22;10370;53.102;18.034;2023-11-22T00:06:21;-2.60;99.90
20422;DHT22;10370;53.102;18.034;2023-11-22T00:11:44;-2.60;99.90
20422;DHT22;10370;53.102;18.034;2023-11-22T00:17:06;-2.60;99.90
20422;DHT22;10370;53.102;18.034;2023-11-22T00:22:29;-2.70;99.90
20422;DHT22;10370;53.102;18.034;2023-11-22T00:27:54;-2.70;99.90
20422;DHT22;10370;53.102;18.034;2023-11-22T00:33:20;-2.80;99.90
20422;DHT22;10370;53.102;18.034;2023-11-22T00:38:43;-2.80;99.90
20422;DHT22;10370;53.102;18.034;2023-11-22T00:44:14;-2.80;99.90
20422;DHT22;10370;53.102;18.034;2023-11-22T00:49:36;-2.90;99.90
20422;DHT22;10370;53.102;18.034;2023-11-22T00:54:59;-2.90;99.90
20422;DHT22;10370;53.102;18.034;2023-11-22T01:00:22;-3.00;99.90
20422;DHT22;10370;53.102;18.034;2023-11-22T01:05:47;-3.00;99.90
20422;DHT22;10370;53.102;18.034;2023-11-22T01:11:10;-3.00;99.90
20422;DHT22;10370;53.102;18.034;2023-11-22T01:16:32;-3.10;99.90
20422;DHT22;10370;53.102;18.034;2023-11-22T01:21:58;-3.10;99.90
20422;DHT22;10370;53.102;18.034;2023-11-22T01:27:20;-3.20;99.90
20422;DHT22;10370;53.102;18.034;2023-11-22T01:32:43;-3.20;99.90
20422;DHT22;10370;53.102;18.034;2023-11-22T01:38:08;-3.30;99.90
20422;DHT22;10370;53.102;18.034;2023-11-22T01:43:31;-3.30;99.90
20422;DHT22;10370;53.102;18.034;2023-11-22T01:48:54;-3.30;99.90
20422;DHT22;10370;53.102;18.034;2023-11-22T01:54:18;-3.40;99.90
20422;DHT22;10370;53.102;18.034;2023-11-22T01:59:43;-3.50;99.90
20422;DHT22;10370;53.102;18.034;2023-11-22T02:05:08;-3.50;99.90
20422;DHT22;10370;53.102;18.034;2023-11-22T02:10:31;-3.60;99.90
20422;DHT22;10370;53.102;18.034;2023-11-22T02:15:56;-3.70;99.90
20422;DHT22;10370;53.102;18.034;2023-11-22T02:43:14;-4.00;99.90
20422;DHT22;10370;53.102;18.034;2023-11-22T02:55:05;-4.10;99.90
20422;DHT22;10370;53.102;18.034;2023-11-22T03:00:28;-4.20;99.90
20422;DHT22;10370;53.102;18.034;2023-11-22T03:05:51;-4.30;99.90
20422;DHT22;10370;53.102;18.034;2023-11-22T03:11:14;-4.20;99.90
20422;DHT22;10370;53.102;18.034;2023-11-22T03:16:39;-4.30;99.90
20422;DHT22;10370;53.102;18.034;2023-11-22T03:22:02;-4.20;99.90
20422;DHT22;10370;53.102;18.034;2023-11-22T03:27:38;-4.10;99.90
20422;DHT22;10370;53.102;18.034;2023-11-22T03:33:01;-4.00;99.90
20422;DHT22;10370;53.102;18.034;2023-11-22T03:38:25;-4.10;99.90
20422;DHT22;10370;53.102;18.034;2023-11-22T03:50:00;-4.20;99.90
20422;DHT22;10370;53.102;18.034;2023-11-22T03:55:25;-4.20;99.90
20422;DHT22;10370;53.102;18.034;2023-11-22T04:00:58;-4.20;99.90
20422;DHT22;10370;53.102;18.034;2023-11-22T04:06:25;-4.30;99.90
20422;DHT22;10370;53.102;18.034;2023-11-22T04:11:48;-4.30;99.90
20422;DHT22;10370;53.102;18.034;2023-11-22T04:17:10;-4.40;99.90
20422;DHT22;10370;53.102;18.034;2023-11-22T04:22:34;-4.50;99.90
20422;DHT22;10370;53.102;18.034;2023-11-22T04:34:05;-4.50;99.90
20422;DHT22;10370;53.102;18.034;2023-11-22T04:39:30;-4.50;99.90
20422;DHT22;10370;53.102;18.034;2023-11-22T04:44:56;-4.50;99.90
20422;DHT22;10370;53.102;18.034;2023-11-22T04:50:18;-4.50;99.90
20422;DHT22;10370;53.102;18.034;2023-11-22T04:55:41;-4.50;99.90
20422;DHT22;10370;53.102;18.034;2023-11-22T05:01:03;-4.40;99.90
20422;DHT22;10370;53.102;18.034;2023-11-22T05:06:27;-4.40;99.90
20422;DHT22;10370;53.102;18.034;2023-11-22T05:11:51;-4.20;99.90
20422;DHT22;10370;53.102;18.034;2023-11-22T05:17:14;-4.20;99.90
20422;DHT22;10370;53.102;18.034;2023-11-22T05:22:37;-4.10;99.90
20422;DHT22;10370;53.102;18.034;2023-11-22T05:28:00;-4.10;99.90
20422;DHT22;10370;53.102;18.034;2023-11-22T05:33:22;-4.10;99.90
20422;DHT22;10370;53.102;18.034;2023-11-22T05:38:45;-4.10;99.90
20422;DHT22;10370;53.102;18.034;2023-11-22T05:44:08;-4.10;99.90
20422;DHT22;10370;53.102;18.034;2023-11-22T05:49:31;-4.20;99.90
20422;DHT22;10370;53.102;18.034;2023-11-22T05:54:53;-4.30;99.90
20422;DHT22;10370;53.102;18.034;2023-11-22T06:00:16;-4.40;99.90
20422;DHT22;10370;53.102;18.034;2023-11-22T06:05:39;-4.40;99.90
20422;DHT22;10370;53.102;18.034;2023-11-22T06:11:02;-4.50;99.90
20422;DHT22;10370;53.102;18.034;2023-11-22T06:16:45;-4.40;99.90
20422;DHT22;10370;53.102;18.034;2023-11-22T06:22:08;-4.30;99.90
20422;DHT22;10370;53.102;18.034;2023-11-22T06:28:06;-4.30;99.90
20422;DHT22;10370;53.102;18.034;2023-11-22T06:33:28;-4.30;99.90
20422;DHT22;10370;53.102;18.034;2023-11-22T06:39:00;-4.20;99.90
20422;DHT22;10370;53.102;18.034;2023-11-22T06:44:23;-4.20;99.90
20422;DHT22;10370;53.102;18.034;2023-11-22T06:49:58;-4.10;99.90
20422;DHT22;10370;53.102;18.034;2023-11-22T06:55:24;-3.90;99.90
20422;DHT22;10370;53.102;18.034;2023-11-22T07:01:06;-3.80;99.90
20422;DHT22;10370;53.102;18.034;2023-11-22T07:06:38;-3.70;99.90
20422;DHT22;10370;53.102;18.034;2023-11-22T07:12:01;-3.60;99.90
20422;DHT22;10370;53.102;18.034;2023-11-22T07:17:46;-3.50;99.90
20422;DHT22;10370;53.102;18.034;2023-11-22T07:23:39;-3.50;99.90
20422;DHT22;10370;53.102;18.034;2023-11-22T07:29:05;-3.60;99.90
20422;DHT22;10370;53.102;18.034;2023-11-22T07:34:40;-3.60;99.90
20422;DHT22;10370;53.102;18.034;2023-11-22T07:40:06;-3.70;99.90
20422;DHT22;10370;53.102;18.034;2023-11-22T07:45:31;-3.60;99.90
20422;DHT22;10370;53.102;18.034;2023-11-22T07:50:56;-3.50;99.90
20422;DHT22;10370;53.102;18.034;2023-11-22T07:56:20;-3.50;99.90
20422;DHT22;10370;53.102;18.034;2023-11-22T08:01:43;-3.40;99.90
20422;DHT22;10370;53.102;18.034;2023-11-22T08:07:06;-3.20;99.90
20422;DHT22;10370;53.102;18.034;2023-11-22T08:12:30;-3.10;99.90
20422;DHT22;10370;53.102;18.034;2023-11-22T08:17:56;-3.00;99.90
20422;DHT22;10370;53.102;18.034;2023-11-22T08:23:23;-2.90;99.90
20422;DHT22;10370;53.102;18.034;2023-11-22T08:28:49;-2.80;99.90
20422;DHT22;10370;53.102;18.034;2023-11-22T08:34:12;-2.70;99.90
20422;DHT22;10370;53.102;18.034;2023-11-22T08:39:34;-2.70;99.90
20422;DHT22;10370;53.102;18.034;2023-11-22T08:44:57;-2.50;99.90
20422;DHT22;10370;53.102;18.034;2023-11-22T08:50:20;-2.50;99.90
20422;DHT22;10370;53.102;18.034;2023-11-22T08:55:46;-2.50;99.90
20422;DHT22;10370;53.102;18.034;2023-11-22T09:01:10;-2.40;99.90
20422;DHT22;10370;53.102;18.034;2023-11-22T09:06:47;-2.30;99.90
20422;DHT22;10370;53.102;18.034;2023-11-22T09:12:25;-2.20;99.90
20422;DHT22;10370;53.102;18.034;2023-11-22T09:17:49;-2.00;99.90
20422;DHT22;10370;53.102;18.034;2023-11-22T09:23:16;-1.90;99.90
20422;DHT22;10370;53.102;18.034;2023-11-22T09:28:49;-1.80;99.90
20422;DHT22;10370;53.102;18.034;2023-11-22T09:34:12;-1.70;99.90
20422;DHT22;10370;53.102;18.034;2023-11-22T09:39:44;-1.60;99.90
20422;DHT22;10370;53.102;18.034;2023-11-22T09:45:41;-1.60;99.90
20422;DHT22;10370;53.102;18.034;2023-11-22T09:51:40;-1.40;99.90
20422;DHT22;10370;53.102;18.034;2023-11-22T09:57:20;-1.30;99.90
20422;DHT22;10370;53.102;18.034;2023-11-22T10:02:44;-1.20;99.90
20422;DHT22;10370;53.102;18.034;2023-11-22T10:08:07;-1.20;99.90
20422;DHT22;10370;53.102;18.034;2023-11-22T10:13:55;-1.10;99.90
20422;DHT22;10370;53.102;18.034;2023-11-22T10:19:31;-1.00;99.90
20422;DHT22;10370;53.102;18.034;2023-11-22T10:25:09;-0.90;99.90
20422;DHT22;10370;53.102;18.034;2023-11-22T10:30:38;-0.80;99.90
20422;DHT22;10370;53.102;18.034;2023-11-22T10:36:02;-0.70;99.90
20422;DHT22;10370;53.102;18.034;2023-11-22T10:41:26;-0.60;99.90
20422;DHT22;10370;53.102;18.034;2023-11-22T10:46:50;-0.60;99.90
20422;DHT22;10370;53.102;18.034;2023-11-22T10:52:15;-0.50;99.90
20422;DHT22;10370;53.102;18.034;2023-11-22T10:57:45;-0.40;99.90
20422;DHT22;10370;53.102;18.034;2023-11-22T11:03:20;-0.30;99.90
20422;DHT22;10370;53.102;18.034;2023-11-22T11:08:44;-0.10;99.90
20422;DHT22;10370;53.102;18.034;2023-11-22T11:14:08;-0.10;99.90
20422;DHT22;10370;53.102;18.034;2023-11-22T11:19:33;0.00;99.90
20422;DHT22;10370;53.102;18.034;2023-11-22T11:25:04;0.00;99.90
20422;DHT22;10370;53.102;18.034;2023-11-22T11:30:47;0.10;99.90
20422;DHT22;10370;53.102;18.034;2023-11-22T11:42:10;0.20;99.90
20422;DHT22;10370;53.102;18.034;2023-11-22T11:47:36;0.40;99.90
20422;DHT22;10370;53.102;18.034;2023-11-22T11:52:59;0.40;99.90
20422;DHT22;10370;53.102;18.034;2023-11-22T11:58:22;0.40;99.90
20422;DHT22;10370;53.102;18.034;2023-11-22T12:03:53;0.50;99.90
20422;DHT22;10370;53.102;18.034;2023-11-22T12:09:22;0.60;99.90
20422;DHT22;10370;53.102;18.034;2023-11-22T12:14:48;0.70;99.90
20422;DHT22;10370;53.102;18.034;2023-11-22T12:20:15;0.80;99.90
20422;DHT22;10370;53.102;18.034;2023-11-22T12:25:40;0.90;99.90
20422;DHT22;10370;53.102;18.034;2023-11-22T12:31:10;0.90;99.90
20422;DHT22;10370;53.102;18.034;2023-11-22T12:36:33;0.90;99.90
20422;DHT22;10370;53.102;18.034;2023-11-22T12:41:57;1.10;99.90
20422;DHT22;10370;53.102;18.034;2023-11-22T12:47:34;1.10;99.90
20422;DHT22;10370;53.102;18.034;2023-11-22T12:53:08;1.10;99.90
20422;DHT22;10370;53.102;18.034;2023-11-22T12:58:33;1.00;99.90
20422;DHT22;10370;53.102;18.034;2023-11-22T13:03:55;1.00;99.90
20422;DHT22;10370;53.102;18.034;2023-11-22T13:09:22;0.90;99.90
20422;DHT22;10370;53.102;18.034;2023-11-22T13:14:44;0.90;99.90
20422;DHT22;10370;53.102;18.034;2023-11-22T13:20:08;0.90;99.90
20422;DHT22;10370;53.102;18.034;2023-11-22T13:25:38;0.90;99.90
20422;DHT22;10370;53.102;18.034;2023-11-22T13:31:00;0.90;99.90
20422;DHT22;10370;53.102;18.034;2023-11-22T13:36:23;0.80;99.90
20422;DHT22;10370;53.102;18.034;2023-11-22T13:41:45;0.80;99.90
20422;DHT22;10370;53.102;18.034;2023-11-22T13:47:08;0.80;99.90
20422;DHT22;10370;53.102;18.034;2023-11-22T13:52:31;0.70;99.90
20422;DHT22;10370;53.102;18.034;2023-11-22T13:57:58;0.70;99.90
20422;DHT22;10370;53.102;18.034;2023-11-22T14:03:21;0.70;99.90
20422;DHT22;10370;53.102;18.034;2023-11-22T14:08:49;0.60;99.90
20422;DHT22;10370;53.102;18.034;2023-11-22T14:14:47;0.70;99.90
20422;DHT22;10370;53.102;18.034;2023-11-22T14:20:09;0.60;99.90
20422;DHT22;10370;53.102;18.034;2023-11-22T14:25:33;0.60;99.90
20422;DHT22;10370;53.102;18.034;2023-11-22T14:31:08;0.50;99.90
20422;DHT22;10370;53.102;18.034;2023-11-22T14:36:33;0.50;99.90
20422;DHT22;10370;53.102;18.034;2023-11-22T14:41:55;0.40;99.90
20422;DHT22;10370;53.102;18.034;2023-11-22T14:47:18;0.40;99.90
20422;DHT22;10370;53.102;18.034;2023-11-22T14:52:52;0.40;99.90
20422;DHT22;10370;53.102;18.034;2023-11-22T14:58:28;0.40;99.90
20422;DHT22;10370;53.102;18.034;2023-11-22T15:03:52;0.40;99.90
20422;DHT22;10370;53.102;18.034;2023-11-22T15:09:17;0.30;99.90
20422;DHT22;10370;53.102;18.034;2023-11-22T15:21:04;0.30;99.90
20422;DHT22;10370;53.102;18.034;2023-11-22T15:26:27;0.30;99.90
20422;DHT22;10370;53.102;18.034;2023-11-22T15:31:49;0.30;99.90
20422;DHT22;10370;53.102;18.034;2023-11-22T15:37:13;0.30;99.90
20422;DHT22;10370;53.102;18.034;2023-11-22T15:42:36;0.30;99.90
20422;DHT22;10370;53.102;18.034;2023-11-22T15:47:58;0.30;99.90
20422;DHT22;10370;53.102;18.034;2023-11-22T15:53:21;0.30;99.90
20422;DHT22;10370;53.102;18.034;2023-11-22T15:58:44;0.30;99.90
20422;DHT22;10370;53.102;18.034;2023-11-22T16:04:07;0.30;99.90
20422;DHT22;10370;53.102;18.034;2023-11-22T16:09:29;0.30;99.90
20422;DHT22;10370;53.102;18.034;2023-11-22T16:14:52;0.30;99.90
20422;DHT22;10370;53.102;18.034;2023-11-22T16:20:15;0.20;99.90
20422;DHT22;10370;53.102;18.034;2023-11-22T16:25:41;0.20;99.90
20422;DHT22;10370;53.102;18.034;2023-11-22T16:31:04;0.10;99.90
20422;DHT22;10370;53.102;18.034;2023-11-22T16:36:28;0.00;99.90
20422;DHT22;10370;53.102;18.034;2023-11-22T16:41:51;-0.10;99.90
20422;DHT22;10370;53.102;18.034;2023-11-22T16:47:14;-0.10;99.90
20422;DHT22;10370;53.102;18.034;2023-11-22T16:52:38;-0.10;99.90
20422;DHT22;10370;53.102;18.034;2023-11-22T16:58:01;-0.10;99.90
20422;DHT22;10370;53.102;18.034;2023-11-22T17:03:25;-0.20;99.90
20422;DHT22;10370;53.102;18.034;2023-11-22T17:08:48;-0.20;99.90
20422;DHT22;10370;53.102;18.034;2023-11-22T17:14:11;-0.20;99.90
20422;DHT22;10370;53.102;18.034;2023-11-22T17:19:33;-0.30;99.90
20422;DHT22;10370;53.102;18.034;2023-11-22T17:24:57;-0.30;99.90
20422;DHT22;10370;53.102;18.034;2023-11-22T17:30:23;-0.30;99.90
20422;DHT22;10370;53.102;18.034;2023-11-22T17:35:49;-0.40;99.90
20422;DHT22;10370;53.102;18.034;2023-11-22T17:41:21;-0.40;99.90
20422;DHT22;10370;53.102;18.034;2023-11-22T17:46:46;-0.40;99.90
20422;DHT22;10370;53.102;18.034;2023-11-22T17:52:32;-0.40;99.90
20422;DHT22;10370;53.102;18.034;2023-11-22T17:57:55;-0.50;99.90
20422;DHT22;10370;53.102;18.034;2023-11-22T18:03:17;-0.50;99.90
20422;DHT22;10370;53.102;18.034;2023-11-22T18:08:54;-0.50;99.90
20422;DHT22;10370;53.102;18.034;2023-11-22T18:14:20;-0.60;99.90
20422;DHT22;10370;53.102;18.034;2023-11-22T18:20:13;-0.60;99.90
20422;DHT22;10370;53.102;18.034;2023-11-22T18:25:43;-0.60;99.90
20422;DHT22;10370;53.102;18.034;2023-11-22T18:31:06;-0.60;99.90
20422;DHT22;10370;53.102;18.034;2023-11-22T18:36:29;-0.60;99.90
20422;DHT22;10370;53.102;18.034;2023-11-22T18:42:01;-0.60;99.90
20422;DHT22;10370;53.102;18.034;2023-11-22T18:47:24;-0.50;99.90
20422;DHT22;10370;53.102;18.034;2023-11-22T18:52:48;-0.50;99.90
20422;DHT22;10370;53.102;18.034;2023-11-22T18:58:16;-0.40;99.90
20422;DHT22;10370;53.102;18.034;2023-11-22T19:03:39;-0.40;99.90
20422;DHT22;10370;53.102;18.034;2023-11-22T19:09:02;-0.40;99.90
20422;DHT22;10370;53.102;18.034;2023-11-22T19:14:28;-0.40;99.90
20422;DHT22;10370;53.102;18.034;2023-11-22T19:20:00;-0.40;99.90
20422;DHT22;10370;53.102;18.034;2023-11-22T19:25:22;-0.40;99.90
20422;DHT22;10370;53.102;18.034;2023-11-22T19:30:50;-0.40;99.90
20422;DHT22;10370;53.102;18.034;2023-11-22T19:36:22;-0.40;99.90
20422;DHT22;10370;53.102;18.034;2023-11-22T19:41:45;-0.40;99.90
20422;DHT22;10370;53.102;18.034;2023-11-22T19:47:08;-0.40;99.90
20422;DHT22;10370;53.102;18.034;2023-11-22T19:52:30;-0.40;99.90
20422;DHT22;10370;53.102;18.034;2023-11-22T19:57:53;-0.40;99.90
20422;DHT22;10370;53.102;18.034;2023-11-22T20:03:19;-0.40;99.90
20422;DHT22;10370;53.102;18.034;2023-11-22T20:08:42;-0.40;99.90
20422;DHT22;10370;53.102;18.034;2023-11-22T20:14:22;-0.30;99.90
20422;DHT22;10370;53.102;18.034;2023-11-22T20:19:45;-0.30;99.90
20422;DHT22;10370;53.102;18.034;2023-11-22T20:25:08;-0.40;99.90
20422;DHT22;10370;53.102;18.034;2023-11-22T20:30:33;-0.40;99.90
20422;DHT22;10370;53.102;18.034;2023-11-22T20:35:56;-0.50;99.90
20422;DHT22;10370;53.102;18.034;2023-11-22T20:47:37;-0.70;99.90
20422;DHT22;10370;53.102;18.034;2023-11-22T20:53:02;-0.80;99.90
20422;DHT22;10370;53.102;18.034;2023-11-22T20:58:25;-0.80;99.90
20422;DHT22;10370;53.102;18.034;2023-11-22T21:09:31;-0.80;99.90
20422;DHT22;10370;53.102;18.034;2023-11-22T21:14:54;-0.80;99.90
20422;DHT22;10370;53.102;18.034;2023-11-22T21:20:18;-0.70;99.90
20422;DHT22;10370;53.102;18.034;2023-11-22T21:25:41;-0.70;99.90
20422;DHT22;10370;53.102;18.034;2023-11-22T21:31:19;-0.60;99.90
20422;DHT22;10370;53.102;18.034;2023-11-22T21:36:43;-0.60;99.90
20422;DHT22;10370;53.102;18.034;2023-11-22T21:42:06;-0.60;99.90
20422;DHT22;10370;53.102;18.034;2023-11-22T21:47:29;-0.60;99.90
20422;DHT22;10370;53.102;18.034;2023-11-22T21:52:54;-0.60;99.90
20422;DHT22;10370;53.102;18.034;2023-11-22T21:58:46;-0.60;99.90
20422;DHT22;10370;53.102;18.034;2023-11-22T22:04:09;-0.60;99.90
20422;DHT22;10370;53.102;18.034;2023-11-22T22:09:32;-0.50;99.90
20422;DHT22;10370;53.102;18.034;2023-11-22T22:14:56;-0.50;99.90
20422;DHT22;10370;53.102;18.034;2023-11-22T22:20:18;-0.50;99.90
20422;DHT22;10370;53.102;18.034;2023-11-22T22:25:42;-0.50;99.90
20422;DHT22;10370;53.102;18.034;2023-11-22T22:31:05;-0.50;99.90
20422;DHT22;10370;53.102;18.034;2023-11-22T22:36:27;-0.50;99.90
20422;DHT22;10370;53.102;18.034;2023-11-22T22:47:49;-0.50;99.90
20422;DHT22;10370;53.102;18.034;2023-11-22T22:53:12;-0.50;99.90
20422;DHT22;10370;53.102;18.034;2023-11-22T22:58:37;-0.50;99.90
20422;DHT22;10370;53.102;18.034;2023-11-22T23:03:59;-0.50;99.90
20422;DHT22;10370;53.102;18.034;2023-11-22T23:09:22;-0.50;99.90
20422;DHT22;10370;53.102;18.034;2023-11-22T23:14:45;-0.50;99.90
20422;DHT22;10370;53.102;18.034;2023-11-22T23:20:07;-0.50;99.90
20422;DHT22;10370;53.102;18.034;2023-11-22T23:25:33;-0.40;99.90
20422;DHT22;10370;53.102;18.034;2023-11-22T23:30:57;-0.40;99.90
20422;DHT22;10370;53.102;18.034;2023-11-22T23:36:22;-0.50;99.90
20422;DHT22;10370;53.102;18.034;2023-11-22T23:41:48;-0.50;99.90
20422;DHT22;10370;53.102;18.034;2023-11-22T23:47:11;-0.50;99.90
20422;DHT22;10370;53.102;18.034;2023-11-22T23:52:34;-0.50;99.90
20422;DHT22;10370;53.102;18.034;2023-11-22T23:57:57;-0.50;99.90
